sensor_id;sensor_type;location;lat;lon;timestamp;pressure;altitude;pressure_sealevel;temperature;humidity
56070;BME280;41944;52.078;-0.058;2022-07-05T00:01:17;102059.59;;;15.68;64.83
56070;BME280;41944;52.078;-0.058;2022-07-05T00:03:44;102070.54;;;15.32;66.00
56070;BME280;41944;52.078;-0.058;2022-07-05T00:06:10;102066.89;;;15.31;66.56
56070;BME280;41944;52.078;-0.058;2022-07-05T00:08:38;102066.95;;;15.25;66.90
56070;BME280;41944;52.078;-0.058;2022-07-05T00:11:06;102070.99;;;15.16;67.08
56070;BME280;41944;52.078;-0.058;2022-07-05T00:13:33;102068.51;;;15.41;66.37
56070;BME280;41944;52.078;-0.058;2022-07-05T00:16:01;102065.97;;;15.43;65.69
56070;BME280;41944;52.078;-0.058;2022-07-05T00:18:28;102060.64;;;15.61;65.02
56070;BME280;41944;52.078;-0.058;2022-07-05T00:20:55;102057.81;;;15.80;64.68
56070;BME280;41944;52.078;-0.058;2022-07-05T00:23:22;102059.48;;;15.67;64.87
56070;BME280;41944;52.078;-0.058;2022-07-05T00:25:49;102059.43;;;15.71;64.91
56070;BME280;41944;52.078;-0.058;2022-07-05T00:28:16;102061.64;;;15.30;66.31
56070;BME280;41944;52.078;-0.058;2022-07-05T00:30:43;102059.42;;;15.10;67.16
56070;BME280;41944;52.078;-0.058;2022-07-05T00:33:10;102060.15;;;14.96;67.78
56070;BME280;41944;52.078;-0.058;2022-07-05T00:35:36;102062.02;;;14.95;68.05
56070;BME280;41944;52.078;-0.058;2022-07-05T00:38:03;102061.21;;;14.83;68.18
56070;BME280;41944;52.078;-0.058;2022-07-05T00:40:30;102064.87;;;14.77;68.64
56070;BME280;41944;52.078;-0.058;2022-07-05T00:42:58;102061.60;;;14.61;69.28
56070;BME280;41944;52.078;-0.058;2022-07-05T00:45:25;102060.17;;;14.52;69.70
56070;BME280;41944;52.078;-0.058;2022-07-05T00:47:52;102061.02;;;14.40;70.23
56070;BME280;41944;52.078;-0.058;2022-07-05T00:50:20;102061.32;;;14.33;70.58
56070;BME280;41944;52.078;-0.058;2022-07-05T00:52:47;102058.14;;;14.32;70.61
56070;BME280;41944;52.078;-0.058;2022-07-05T00:55:15;102060.38;;;14.15;71.25
56070;BME280;41944;52.078;-0.058;2022-07-05T00:57:43;102058.15;;;14.11;71.51
56070;BME280;41944;52.078;-0.058;2022-07-05T01:00:11;102052.42;;;14.16;71.27
56070;BME280;41944;52.078;-0.058;2022-07-05T01:02:38;102055.74;;;14.10;71.55
56070;BME280;41944;52.078;-0.058;2022-07-05T01:05:05;102056.21;;;13.91;72.51
56070;BME280;41944;52.078;-0.058;2022-07-05T01:07:34;102051.70;;;13.89;72.59
56070;BME280;41944;52.078;-0.058;2022-07-05T01:10:01;102053.83;;;13.78;72.90
56070;BME280;41944;52.078;-0.058;2022-07-05T01:12:28;102056.94;;;13.72;73.31
56070;BME280;41944;52.078;-0.058;2022-07-05T01:14:56;102057.30;;;13.70;73.16
56070;BME280;41944;52.078;-0.058;2022-07-05T01:17:24;102054.33;;;13.59;73.41
56070;BME280;41944;52.078;-0.058;2022-07-05T01:19:52;102055.69;;;13.46;73.81
56070;BME280;41944;52.078;-0.058;2022-07-05T01:22:20;102057.33;;;13.46;73.96
56070;BME280;41944;52.078;-0.058;2022-07-05T01:24:51;102057.68;;;13.60;73.58
56070;BME280;41944;52.078;-0.058;2022-07-05T01:27:20;102057.32;;;13.93;72.16
56070;BME280;41944;52.078;-0.058;2022-07-05T01:29:47;102057.50;;;13.80;72.06
56070;BME280;41944;52.078;-0.058;2022-07-05T01:32:15;102059.06;;;13.87;71.79
56070;BME280;41944;52.078;-0.058;2022-07-05T01:34:42;102056.82;;;13.66;72.04
56070;BME280;41944;52.078;-0.058;2022-07-05T01:37:10;102055.34;;;13.49;72.72
56070;BME280;41944;52.078;-0.058;2022-07-05T01:39:38;102055.56;;;13.29;73.51
56070;BME280;41944;52.078;-0.058;2022-07-05T01:42:06;102052.79;;;13.23;73.71
56070;BME280;41944;52.078;-0.058;2022-07-05T01:44:34;102055.98;;;13.26;73.69
56070;BME280;41944;52.078;-0.058;2022-07-05T01:47:05;102057.46;;;13.21;73.85
56070;BME280;41944;52.078;-0.058;2022-07-05T01:49:36;102055.66;;;13.43;72.97
56070;BME280;41944;52.078;-0.058;2022-07-05T01:52:09;102056.77;;;13.78;70.88
56070;BME280;41944;52.078;-0.058;2022-07-05T01:54:36;102056.63;;;13.58;71.32
56070;BME280;41944;52.078;-0.058;2022-07-05T01:57:05;102057.05;;;13.45;71.84
56070;BME280;41944;52.078;-0.058;2022-07-05T01:59:34;102060.55;;;13.14;73.17
56070;BME280;41944;52.078;-0.058;2022-07-05T02:02:02;102057.74;;;13.00;74.01
56070;BME280;41944;52.078;-0.058;2022-07-05T02:04:29;102058.19;;;12.98;74.19
56070;BME280;41944;52.078;-0.058;2022-07-05T02:06:56;102058.68;;;12.94;74.42
56070;BME280;41944;52.078;-0.058;2022-07-05T02:09:24;102056.49;;;13.01;73.84
56070;BME280;41944;52.078;-0.058;2022-07-05T02:11:51;102054.88;;;13.00;73.73
56070;BME280;41944;52.078;-0.058;2022-07-05T02:14:18;102053.89;;;13.04;73.68
56070;BME280;41944;52.078;-0.058;2022-07-05T02:16:45;102051.43;;;12.89;73.97
56070;BME280;41944;52.078;-0.058;2022-07-05T02:19:13;102046.06;;;12.84;74.20
56070;BME280;41944;52.078;-0.058;2022-07-05T02:21:40;102046.92;;;12.75;74.50
56070;BME280;41944;52.078;-0.058;2022-07-05T02:24:08;102048.48;;;12.86;73.93
56070;BME280;41944;52.078;-0.058;2022-07-05T02:26:36;102044.77;;;12.93;73.62
56070;BME280;41944;52.078;-0.058;2022-07-05T02:29:03;102045.92;;;12.93;73.37
56070;BME280;41944;52.078;-0.058;2022-07-05T02:31:31;102046.43;;;12.83;73.73
56070;BME280;41944;52.078;-0.058;2022-07-05T02:33:58;102044.65;;;13.01;73.17
56070;BME280;41944;52.078;-0.058;2022-07-05T02:36:25;102044.94;;;12.87;73.35
56070;BME280;41944;52.078;-0.058;2022-07-05T02:38:53;102043.78;;;12.87;73.46
56070;BME280;41944;52.078;-0.058;2022-07-05T02:41:20;102045.18;;;12.60;74.31
56070;BME280;41944;52.078;-0.058;2022-07-05T02:43:47;102042.35;;;12.51;74.61
56070;BME280;41944;52.078;-0.058;2022-07-05T02:46:14;102041.71;;;12.47;74.78
56070;BME280;41944;52.078;-0.058;2022-07-05T02:48:42;102040.25;;;12.41;74.81
56070;BME280;41944;52.078;-0.058;2022-07-05T02:51:10;102044.45;;;12.33;75.12
56070;BME280;41944;52.078;-0.058;2022-07-05T02:53:37;102040.89;;;12.25;75.56
56070;BME280;41944;52.078;-0.058;2022-07-05T02:56:04;102047.59;;;12.38;75.29
56070;BME280;41944;52.078;-0.058;2022-07-05T02:58:31;102050.68;;;12.39;75.00
56070;BME280;41944;52.078;-0.058;2022-07-05T03:00:59;102045.42;;;12.22;75.86
56070;BME280;41944;52.078;-0.058;2022-07-05T03:03:26;102044.52;;;12.12;76.26
56070;BME280;41944;52.078;-0.058;2022-07-05T03:05:53;102043.99;;;12.08;76.30
56070;BME280;41944;52.078;-0.058;2022-07-05T03:08:20;102046.71;;;12.04;76.55
56070;BME280;41944;52.078;-0.058;2022-07-05T03:10:48;102052.49;;;12.05;76.55
56070;BME280;41944;52.078;-0.058;2022-07-05T03:13:15;102046.33;;;12.13;76.51
56070;BME280;41944;52.078;-0.058;2022-07-05T03:15:42;102051.49;;;12.18;76.43
56070;BME280;41944;52.078;-0.058;2022-07-05T03:18:10;102047.88;;;12.10;76.64
56070;BME280;41944;52.078;-0.058;2022-07-05T03:20:37;102047.02;;;12.18;76.73
56070;BME280;41944;52.078;-0.058;2022-07-05T03:23:04;102050.88;;;12.24;76.40
56070;BME280;41944;52.078;-0.058;2022-07-05T03:25:31;102059.06;;;12.36;75.75
56070;BME280;41944;52.078;-0.058;2022-07-05T03:27:58;102056.98;;;12.28;76.26
56070;BME280;41944;52.078;-0.058;2022-07-05T03:30:25;102061.05;;;12.47;75.91
56070;BME280;41944;52.078;-0.058;2022-07-05T03:32:52;102061.44;;;12.34;76.27
56070;BME280;41944;52.078;-0.058;2022-07-05T03:35:20;102063.66;;;12.36;76.53
56070;BME280;41944;52.078;-0.058;2022-07-05T03:37:46;102068.50;;;12.33;76.55
56070;BME280;41944;52.078;-0.058;2022-07-05T03:40:13;102069.39;;;12.42;76.36
56070;BME280;41944;52.078;-0.058;2022-07-05T03:42:40;102069.03;;;12.44;76.49
56070;BME280;41944;52.078;-0.058;2022-07-05T03:45:08;102069.24;;;12.43;76.68
56070;BME280;41944;52.078;-0.058;2022-07-05T03:47:36;102072.49;;;12.54;76.22
56070;BME280;41944;52.078;-0.058;2022-07-05T03:50:05;102072.38;;;12.60;75.92
56070;BME280;41944;52.078;-0.058;2022-07-05T03:52:32;102074.47;;;12.62;76.04
56070;BME280;41944;52.078;-0.058;2022-07-05T03:54:59;102074.75;;;12.53;76.36
56070;BME280;41944;52.078;-0.058;2022-07-05T03:57:26;102078.56;;;12.50;76.50
56070;BME280;41944;52.078;-0.058;2022-07-05T03:59:53;102079.00;;;12.46;76.90
56070;BME280;41944;52.078;-0.058;2022-07-05T04:02:20;102077.74;;;12.49;76.87
56070;BME280;41944;52.078;-0.058;2022-07-05T04:04:47;102078.77;;;12.54;76.55
56070;BME280;41944;52.078;-0.058;2022-07-05T04:07:14;102075.05;;;12.75;75.70
56070;BME280;41944;52.078;-0.058;2022-07-05T04:09:42;102072.19;;;12.61;75.85
56070;BME280;41944;52.078;-0.058;2022-07-05T04:12:10;102073.52;;;12.60;76.10
56070;BME280;41944;52.078;-0.058;2022-07-05T04:14:36;102077.77;;;12.70;75.57
56070;BME280;41944;52.078;-0.058;2022-07-05T04:17:03;102077.57;;;12.68;75.80
56070;BME280;41944;52.078;-0.058;2022-07-05T04:19:31;102082.85;;;12.66;75.73
56070;BME280;41944;52.078;-0.058;2022-07-05T04:21:58;102081.76;;;12.63;75.78
56070;BME280;41944;52.078;-0.058;2022-07-05T04:24:25;102085.69;;;12.58;75.99
56070;BME280;41944;52.078;-0.058;2022-07-05T04:26:53;102091.13;;;12.53;76.23
56070;BME280;41944;52.078;-0.058;2022-07-05T04:29:20;102092.42;;;12.61;76.06
56070;BME280;41944;52.078;-0.058;2022-07-05T04:31:47;102093.71;;;12.64;75.89
56070;BME280;41944;52.078;-0.058;2022-07-05T04:34:14;102100.79;;;12.78;75.56
56070;BME280;41944;52.078;-0.058;2022-07-05T04:36:42;102100.55;;;12.80;75.13
56070;BME280;41944;52.078;-0.058;2022-07-05T04:39:09;102101.73;;;12.66;75.64
56070;BME280;41944;52.078;-0.058;2022-07-05T04:41:35;102105.32;;;12.72;75.70
56070;BME280;41944;52.078;-0.058;2022-07-05T04:44:03;102109.62;;;12.79;75.36
56070;BME280;41944;52.078;-0.058;2022-07-05T04:46:30;102110.88;;;12.85;75.14
56070;BME280;41944;52.078;-0.058;2022-07-05T04:48:57;102113.79;;;12.94;74.65
56070;BME280;41944;52.078;-0.058;2022-07-05T04:51:24;102114.74;;;12.85;74.74
56070;BME280;41944;52.078;-0.058;2022-07-05T04:53:51;102116.08;;;12.84;74.74
56070;BME280;41944;52.078;-0.058;2022-07-05T04:56:18;102115.05;;;12.70;75.33
56070;BME280;41944;52.078;-0.058;2022-07-05T04:58:45;102117.73;;;12.76;75.49
56070;BME280;41944;52.078;-0.058;2022-07-05T05:01:12;102122.57;;;12.88;74.92
56070;BME280;41944;52.078;-0.058;2022-07-05T05:03:39;102124.64;;;12.85;74.91
56070;BME280;41944;52.078;-0.058;2022-07-05T05:06:06;102125.44;;;12.81;75.26
56070;BME280;41944;52.078;-0.058;2022-07-05T05:08:33;102124.40;;;12.87;75.22
56070;BME280;41944;52.078;-0.058;2022-07-05T05:11:00;102124.31;;;12.91;75.19
56070;BME280;41944;52.078;-0.058;2022-07-05T05:13:27;102125.53;;;13.17;74.02
56070;BME280;41944;52.078;-0.058;2022-07-05T05:15:55;102127.67;;;13.25;73.98
56070;BME280;41944;52.078;-0.058;2022-07-05T05:18:21;102127.98;;;13.27;73.92
56070;BME280;41944;52.078;-0.058;2022-07-05T05:20:48;102128.61;;;13.20;74.36
56070;BME280;41944;52.078;-0.058;2022-07-05T05:23:16;102130.95;;;13.38;73.92
56070;BME280;41944;52.078;-0.058;2022-07-05T05:25:43;102130.41;;;13.34;74.23
56070;BME280;41944;52.078;-0.058;2022-07-05T05:28:10;102135.59;;;13.45;73.99
56070;BME280;41944;52.078;-0.058;2022-07-05T05:30:37;102134.77;;;13.60;73.11
56070;BME280;41944;52.078;-0.058;2022-07-05T05:33:03;102136.90;;;13.57;73.38
56070;BME280;41944;52.078;-0.058;2022-07-05T05:35:30;102138.32;;;13.74;72.95
56070;BME280;41944;52.078;-0.058;2022-07-05T05:37:58;102138.02;;;13.82;72.50
56070;BME280;41944;52.078;-0.058;2022-07-05T05:40:25;102139.19;;;13.96;71.85
56070;BME280;41944;52.078;-0.058;2022-07-05T05:42:54;102139.23;;;14.03;71.70
56070;BME280;41944;52.078;-0.058;2022-07-05T05:45:22;102144.04;;;13.96;72.29
56070;BME280;41944;52.078;-0.058;2022-07-05T05:47:50;102143.55;;;14.04;71.93
56070;BME280;41944;52.078;-0.058;2022-07-05T05:50:20;102145.80;;;14.30;70.65
56070;BME280;41944;52.078;-0.058;2022-07-05T05:52:47;102145.63;;;14.25;70.95
56070;BME280;41944;52.078;-0.058;2022-07-05T05:55:15;102151.42;;;14.22;70.80
56070;BME280;41944;52.078;-0.058;2022-07-05T05:57:42;102154.86;;;14.47;69.91
56070;BME280;41944;52.078;-0.058;2022-07-05T06:00:15;102155.95;;;14.56;69.95
56070;BME280;41944;52.078;-0.058;2022-07-05T06:02:44;102157.59;;;14.59;69.24
56070;BME280;41944;52.078;-0.058;2022-07-05T06:05:12;102159.52;;;14.58;69.18
56070;BME280;41944;52.078;-0.058;2022-07-05T06:07:49;102165.27;;;14.58;69.42
56070;BME280;41944;52.078;-0.058;2022-07-05T06:10:20;102166.57;;;14.71;69.32
56070;BME280;41944;52.078;-0.058;2022-07-05T06:12:49;102169.07;;;15.03;67.86
56070;BME280;41944;52.078;-0.058;2022-07-05T06:15:17;102171.15;;;15.03;68.15
56070;BME280;41944;52.078;-0.058;2022-07-05T06:17:44;102173.55;;;14.90;68.76
56070;BME280;41944;52.078;-0.058;2022-07-05T06:20:13;102178.98;;;15.30;67.40
56070;BME280;41944;52.078;-0.058;2022-07-05T06:22:41;102179.99;;;15.35;67.08
56070;BME280;41944;52.078;-0.058;2022-07-05T06:25:09;102178.77;;;15.35;67.04
56070;BME280;41944;52.078;-0.058;2022-07-05T06:27:39;102181.32;;;15.50;67.05
56070;BME280;41944;52.078;-0.058;2022-07-05T06:30:08;102182.40;;;15.69;66.40
56070;BME280;41944;52.078;-0.058;2022-07-05T06:32:35;102184.10;;;15.88;66.03
56070;BME280;41944;52.078;-0.058;2022-07-05T06:35:04;102183.70;;;16.11;65.97
56070;BME280;41944;52.078;-0.058;2022-07-05T06:37:41;102180.37;;;16.28;64.99
56070;BME280;41944;52.078;-0.058;2022-07-05T06:40:10;102175.03;;;16.59;63.69
56070;BME280;41944;52.078;-0.058;2022-07-05T06:42:38;102173.45;;;17.00;62.94
56070;BME280;41944;52.078;-0.058;2022-07-05T06:45:06;102173.96;;;17.10;62.14
56070;BME280;41944;52.078;-0.058;2022-07-05T06:47:34;102172.72;;;17.26;61.77
56070;BME280;41944;52.078;-0.058;2022-07-05T06:50:02;102177.16;;;17.29;61.57
56070;BME280;41944;52.078;-0.058;2022-07-05T06:52:29;102178.10;;;17.35;61.25
56070;BME280;41944;52.078;-0.058;2022-07-05T06:54:57;102180.44;;;17.26;61.12
56070;BME280;41944;52.078;-0.058;2022-07-05T06:57:25;102181.67;;;17.18;61.29
56070;BME280;41944;52.078;-0.058;2022-07-05T06:59:52;102182.96;;;17.23;61.45
56070;BME280;41944;52.078;-0.058;2022-07-05T07:02:20;102186.61;;;17.23;61.03
56070;BME280;41944;52.078;-0.058;2022-07-05T07:04:48;102186.54;;;17.21;61.70
56070;BME280;41944;52.078;-0.058;2022-07-05T07:07:16;102185.57;;;17.28;62.12
56070;BME280;41944;52.078;-0.058;2022-07-05T07:09:43;102186.62;;;17.60;61.70
56070;BME280;41944;52.078;-0.058;2022-07-05T07:12:10;102189.50;;;17.75;60.84
56070;BME280;41944;52.078;-0.058;2022-07-05T07:14:37;102191.04;;;17.74;61.04
56070;BME280;41944;52.078;-0.058;2022-07-05T07:17:05;102195.59;;;18.07;60.41
56070;BME280;41944;52.078;-0.058;2022-07-05T07:19:32;102195.70;;;18.32;57.80
56070;BME280;41944;52.078;-0.058;2022-07-05T07:21:59;102192.34;;;18.53;57.61
56070;BME280;41944;52.078;-0.058;2022-07-05T07:24:26;102192.80;;;18.52;56.88
56070;BME280;41944;52.078;-0.058;2022-07-05T07:26:53;102190.31;;;18.67;56.68
56070;BME280;41944;52.078;-0.058;2022-07-05T07:29:19;102192.70;;;18.68;56.32
56070;BME280;41944;52.078;-0.058;2022-07-05T07:31:47;102191.73;;;18.63;56.41
56070;BME280;41944;52.078;-0.058;2022-07-05T07:34:15;102195.41;;;18.48;56.77
56070;BME280;41944;52.078;-0.058;2022-07-05T07:36:42;102195.05;;;18.54;56.97
56070;BME280;41944;52.078;-0.058;2022-07-05T07:39:09;102197.47;;;18.48;56.95
56070;BME280;41944;52.078;-0.058;2022-07-05T07:41:36;102198.65;;;18.69;56.14
56070;BME280;41944;52.078;-0.058;2022-07-05T07:44:03;102201.98;;;18.87;55.52
56070;BME280;41944;52.078;-0.058;2022-07-05T07:46:31;102203.29;;;18.77;56.05
56070;BME280;41944;52.078;-0.058;2022-07-05T07:48:59;102205.74;;;18.93;54.89
56070;BME280;41944;52.078;-0.058;2022-07-05T07:51:26;102207.31;;;19.00;54.59
56070;BME280;41944;52.078;-0.058;2022-07-05T07:53:54;102210.20;;;18.89;55.11
56070;BME280;41944;52.078;-0.058;2022-07-05T07:56:21;102208.92;;;18.80;55.22
56070;BME280;41944;52.078;-0.058;2022-07-05T07:58:49;102212.26;;;18.82;55.85
56070;BME280;41944;52.078;-0.058;2022-07-05T08:01:17;102211.64;;;19.08;55.96
56070;BME280;41944;52.078;-0.058;2022-07-05T08:03:45;102208.89;;;19.29;53.78
56070;BME280;41944;52.078;-0.058;2022-07-05T08:06:12;102207.37;;;19.62;52.94
56070;BME280;41944;52.078;-0.058;2022-07-05T08:08:41;102204.95;;;19.78;51.76
56070;BME280;41944;52.078;-0.058;2022-07-05T08:11:10;102203.32;;;19.80;50.38
56070;BME280;41944;52.078;-0.058;2022-07-05T08:13:38;102202.82;;;19.90;50.73
56070;BME280;41944;52.078;-0.058;2022-07-05T08:16:06;102209.11;;;20.02;49.73
56070;BME280;41944;52.078;-0.058;2022-07-05T08:18:34;102205.22;;;19.98;49.78
56070;BME280;41944;52.078;-0.058;2022-07-05T08:21:02;102203.18;;;19.81;49.62
56070;BME280;41944;52.078;-0.058;2022-07-05T08:23:29;102203.10;;;19.78;49.53
56070;BME280;41944;52.078;-0.058;2022-07-05T08:25:55;102204.86;;;19.50;50.05
56070;BME280;41944;52.078;-0.058;2022-07-05T08:28:22;102202.81;;;19.45;50.66
56070;BME280;41944;52.078;-0.058;2022-07-05T08:30:49;102206.49;;;19.53;50.34
56070;BME280;41944;52.078;-0.058;2022-07-05T08:33:16;102208.89;;;19.57;50.06
56070;BME280;41944;52.078;-0.058;2022-07-05T08:35:43;102206.09;;;19.71;49.04
56070;BME280;41944;52.078;-0.058;2022-07-05T08:38:10;102207.05;;;19.90;48.58
56070;BME280;41944;52.078;-0.058;2022-07-05T08:40:37;102204.12;;;20.02;48.32
56070;BME280;41944;52.078;-0.058;2022-07-05T08:43:06;102203.51;;;20.15;48.05
56070;BME280;41944;52.078;-0.058;2022-07-05T08:45:35;102199.47;;;20.19;48.13
56070;BME280;41944;52.078;-0.058;2022-07-05T08:48:05;102206.12;;;19.97;48.19
56070;BME280;41944;52.078;-0.058;2022-07-05T08:50:34;102206.41;;;19.77;48.54
56070;BME280;41944;52.078;-0.058;2022-07-05T08:53:03;102201.75;;;19.87;48.17
56070;BME280;41944;52.078;-0.058;2022-07-05T08:55:32;102205.02;;;19.89;48.61
56070;BME280;41944;52.078;-0.058;2022-07-05T08:58:01;102204.35;;;20.13;48.50
56070;BME280;41944;52.078;-0.058;2022-07-05T09:00:28;102208.74;;;20.44;48.37
56070;BME280;41944;52.078;-0.058;2022-07-05T09:02:56;102202.82;;;20.67;47.09
56070;BME280;41944;52.078;-0.058;2022-07-05T09:05:25;102200.49;;;20.87;46.97
56070;BME280;41944;52.078;-0.058;2022-07-05T09:07:58;102202.49;;;21.03;45.92
56070;BME280;41944;52.078;-0.058;2022-07-05T09:10:28;102200.54;;;20.91;46.33
56070;BME280;41944;52.078;-0.058;2022-07-05T09:12:56;102198.65;;;20.92;46.94
56070;BME280;41944;52.078;-0.058;2022-07-05T09:15:24;102205.19;;;20.81;46.70
56070;BME280;41944;52.078;-0.058;2022-07-05T09:17:51;102202.83;;;20.81;46.59
56070;BME280;41944;52.078;-0.058;2022-07-05T09:20:19;102207.31;;;21.01;46.47
56070;BME280;41944;52.078;-0.058;2022-07-05T09:22:48;102205.13;;;21.18;46.20
56070;BME280;41944;52.078;-0.058;2022-07-05T09:25:18;102206.29;;;21.57;45.23
56070;BME280;41944;52.078;-0.058;2022-07-05T09:27:51;102205.78;;;21.77;44.47
56070;BME280;41944;52.078;-0.058;2022-07-05T09:30:28;102199.65;;;21.93;43.79
56070;BME280;41944;52.078;-0.058;2022-07-05T09:33:03;102206.37;;;21.69;43.80
56070;BME280;41944;52.078;-0.058;2022-07-05T09:35:30;102209.92;;;21.58;44.77
56070;BME280;41944;52.078;-0.058;2022-07-05T09:37:58;102206.27;;;21.63;44.16
56070;BME280;41944;52.078;-0.058;2022-07-05T09:40:25;102204.72;;;21.60;44.03
56070;BME280;41944;52.078;-0.058;2022-07-05T09:42:52;102206.62;;;21.68;43.92
56070;BME280;41944;52.078;-0.058;2022-07-05T09:45:23;102206.50;;;21.38;43.71
56070;BME280;41944;52.078;-0.058;2022-07-05T09:47:50;102205.48;;;21.47;43.01
56070;BME280;41944;52.078;-0.058;2022-07-05T09:50:33;102197.11;;;21.49;42.77
56070;BME280;41944;52.078;-0.058;2022-07-05T09:53:00;102200.97;;;21.30;42.33
56070;BME280;41944;52.078;-0.058;2022-07-05T09:55:28;102196.82;;;21.32;42.68
56070;BME280;41944;52.078;-0.058;2022-07-05T09:57:55;102200.63;;;21.35;43.01
56070;BME280;41944;52.078;-0.058;2022-07-05T10:00:22;102203.37;;;21.56;41.80
56070;BME280;41944;52.078;-0.058;2022-07-05T10:02:51;102204.90;;;21.63;42.72
56070;BME280;41944;52.078;-0.058;2022-07-05T10:05:20;102197.94;;;21.74;42.07
56070;BME280;41944;52.078;-0.058;2022-07-05T10:07:48;102193.98;;;21.73;43.14
56070;BME280;41944;52.078;-0.058;2022-07-05T10:10:17;102196.95;;;21.99;43.45
56070;BME280;41944;52.078;-0.058;2022-07-05T10:12:46;102193.14;;;22.32;43.20
56070;BME280;41944;52.078;-0.058;2022-07-05T10:15:16;102196.02;;;22.48;41.99
56070;BME280;41944;52.078;-0.058;2022-07-05T10:17:48;102199.43;;;22.34;41.69
56070;BME280;41944;52.078;-0.058;2022-07-05T10:20:22;102201.99;;;21.87;41.79
56070;BME280;41944;52.078;-0.058;2022-07-05T10:22:51;102200.61;;;21.94;42.70
56070;BME280;41944;52.078;-0.058;2022-07-05T10:25:19;102195.22;;;22.09;42.59
56070;BME280;41944;52.078;-0.058;2022-07-05T10:27:48;102199.43;;;22.35;40.80
56070;BME280;41944;52.078;-0.058;2022-07-05T10:30:17;102199.85;;;22.49;39.55
56070;BME280;41944;52.078;-0.058;2022-07-05T10:32:44;102204.87;;;22.43;41.21
56070;BME280;41944;52.078;-0.058;2022-07-05T10:35:11;102202.86;;;22.57;40.10
56070;BME280;41944;52.078;-0.058;2022-07-05T10:37:39;102208.02;;;22.24;40.77
56070;BME280;41944;52.078;-0.058;2022-07-05T10:40:08;102206.27;;;22.19;40.45
56070;BME280;41944;52.078;-0.058;2022-07-05T10:42:39;102206.24;;;22.21;39.87
56070;BME280;41944;52.078;-0.058;2022-07-05T10:45:23;102212.19;;;22.26;41.00
56070;BME280;41944;52.078;-0.058;2022-07-05T10:48:24;102215.27;;;22.17;40.59
56070;BME280;41944;52.078;-0.058;2022-07-05T10:50:53;102222.75;;;21.79;41.10
56070;BME280;41944;52.078;-0.058;2022-07-05T10:53:22;102218.44;;;21.62;41.72
56070;BME280;41944;52.078;-0.058;2022-07-05T10:55:54;102221.03;;;21.79;41.42
56070;BME280;41944;52.078;-0.058;2022-07-05T10:58:23;102225.81;;;21.69;41.77
56070;BME280;41944;52.078;-0.058;2022-07-05T11:01:41;102227.30;;;21.71;41.15
56070;BME280;41944;52.078;-0.058;2022-07-05T11:04:19;102228.63;;;22.01;41.32
56070;BME280;41944;52.078;-0.058;2022-07-05T11:06:48;102232.18;;;22.29;40.16
56070;BME280;41944;52.078;-0.058;2022-07-05T11:09:17;102227.20;;;22.51;40.00
56070;BME280;41944;52.078;-0.058;2022-07-05T11:11:46;102230.44;;;22.52;40.19
56070;BME280;41944;52.078;-0.058;2022-07-05T11:14:46;102229.92;;;22.46;40.62
56070;BME280;41944;52.078;-0.058;2022-07-05T11:17:18;102234.55;;;22.51;40.43
56070;BME280;41944;52.078;-0.058;2022-07-05T11:20:26;102236.71;;;22.52;39.91
56070;BME280;41944;52.078;-0.058;2022-07-05T11:23:11;102233.70;;;22.39;41.38
56070;BME280;41944;52.078;-0.058;2022-07-05T11:25:41;102243.88;;;22.10;40.99
56070;BME280;41944;52.078;-0.058;2022-07-05T11:28:15;102244.83;;;21.74;41.93
56070;BME280;41944;52.078;-0.058;2022-07-05T11:30:47;102240.16;;;21.73;42.62
56070;BME280;41944;52.078;-0.058;2022-07-05T11:33:47;102242.37;;;21.65;42.71
56070;BME280;41944;52.078;-0.058;2022-07-05T11:36:24;102246.42;;;21.83;42.00
56070;BME280;41944;52.078;-0.058;2022-07-05T11:39:23;102248.86;;;21.91;42.18
56070;BME280;41944;52.078;-0.058;2022-07-05T11:41:50;102243.47;;;22.08;42.26
56070;BME280;41944;52.078;-0.058;2022-07-05T11:44:17;102251.89;;;22.11;42.05
56070;BME280;41944;52.078;-0.058;2022-07-05T11:46:44;102249.75;;;21.93;41.95
56070;BME280;41944;52.078;-0.058;2022-07-05T11:49:12;102250.52;;;21.75;42.36
56070;BME280;41944;52.078;-0.058;2022-07-05T11:51:54;102248.13;;;21.98;42.89
56070;BME280;41944;52.078;-0.058;2022-07-05T11:54:23;102250.57;;;22.19;42.04
56070;BME280;41944;52.078;-0.058;2022-07-05T11:56:51;102250.90;;;21.80;42.88
56070;BME280;41944;52.078;-0.058;2022-07-05T11:59:19;102249.37;;;22.16;42.86
56070;BME280;41944;52.078;-0.058;2022-07-05T12:01:47;102247.89;;;22.34;42.18
56070;BME280;41944;52.078;-0.058;2022-07-05T12:04:21;102248.82;;;22.28;42.11
56070;BME280;41944;52.078;-0.058;2022-07-05T12:06:48;102241.63;;;22.36;41.55
56070;BME280;41944;52.078;-0.058;2022-07-05T12:09:22;102242.12;;;22.53;42.03
56070;BME280;41944;52.078;-0.058;2022-07-05T12:11:50;102236.51;;;22.72;41.07
56070;BME280;41944;52.078;-0.058;2022-07-05T12:14:21;102234.38;;;22.89;40.80
56070;BME280;41944;52.078;-0.058;2022-07-05T12:16:49;102233.62;;;22.73;41.96
56070;BME280;41944;52.078;-0.058;2022-07-05T12:19:24;102228.38;;;22.78;41.98
56070;BME280;41944;52.078;-0.058;2022-07-05T12:21:53;102227.80;;;22.85;42.21
56070;BME280;41944;52.078;-0.058;2022-07-05T12:24:21;102223.73;;;22.89;41.69
56070;BME280;41944;52.078;-0.058;2022-07-05T12:26:50;102228.69;;;22.80;41.61
56070;BME280;41944;52.078;-0.058;2022-07-05T12:29:18;102224.65;;;22.73;41.71
56070;BME280;41944;52.078;-0.058;2022-07-05T12:32:02;102223.36;;;22.73;42.39
56070;BME280;41944;52.078;-0.058;2022-07-05T12:34:30;102225.64;;;23.03;41.86
56070;BME280;41944;52.078;-0.058;2022-07-05T12:36:58;102224.49;;;23.26;41.10
56070;BME280;41944;52.078;-0.058;2022-07-05T12:39:25;102220.64;;;23.20;40.69
56070;BME280;41944;52.078;-0.058;2022-07-05T12:41:52;102218.27;;;23.48;40.97
56070;BME280;41944;52.078;-0.058;2022-07-05T12:44:20;102221.57;;;23.49;41.05
56070;BME280;41944;52.078;-0.058;2022-07-05T12:46:47;102221.09;;;23.47;40.84
56070;BME280;41944;52.078;-0.058;2022-07-05T12:49:15;102223.51;;;23.81;39.75